Latest Weather Observations for Camooweal

IDQ60801

Issued at 8:32 pm EST Thursday 5 May 2016 (issued every 30 minutes, with the page automatically refreshed every 10 minutes)

About weather observations | Map of weather stations | Latest weather observations for QLD | Other Formats
Station Details ID: 037010 Name: CAMOOWEAL TOWNSHIP Lat: -19.92 Lon: 138.12 Height: 231.2 m
Data from the previous 72 hours. | See also: Recent months at Camooweal
Date/Time
EST
Temp
°C
App
Temp
°C
Dew
Point
Rel
Hum
%
Delta-T
°C
Wind Press
QNH
hPa
Press
MSL
hPa
Rain
since 9 am
mm
Dir
 
Spd
km/h
Gust
km/h
Spd
kts
Gust
kts
05/08:30pm 27.3 27.4 10.1 34 9.7 CALM 0 0 0 0 1013.9 1013.1 0.0
05/08:00pm 27.5 27.6 10.2 34 9.8 CALM 0 6 0 3 1013.5 1012.7 0.0
05/07:30pm 28.2 27.8 9.9 32 10.3 S 2 6 1 3 1013.1 1012.3 0.0
05/07:00pm 28.8 27.5 10.0 31 10.7 S 7 9 4 5 1012.7 1011.8 0.0
05/06:30pm 30.1 28.5 10.1 29 11.4 SSE 9 11 5 6 1012.5 1011.6 0.0
05/06:00pm 31.8 30.1 9.9 26 12.6 S 9 13 5 7 1012.2 1011.3 0.0
05/05:30pm 33.3 31.3 10.0 24 13.5 S 11 17 6 9 1012.0 1011.1 0.0
05/05:00pm 33.8 33.2 10.4 24 13.7 S 4 9 2 5 1011.9 1011.0 0.0
05/04:30pm 33.9 32.8 10.5 24 13.7 SE 7 19 4 10 1011.8 1010.9 0.0
05/04:00pm 34.0 32.9 10.6 24 13.7 SSW 7 13 4 7 1011.9 1011.0 0.0
05/03:30pm 33.8 32.6 10.4 24 13.7 ESE 7 15 4 8 1011.9 1011.0 0.0
05/03:00pm 33.5 33.2 10.2 24 13.6 WNW 2 11 1 6 1012.2 1011.3 0.0
05/02:30pm 34.2 34.1 10.7 24 13.8 WSW 2 7 1 4 1012.6 1011.7 0.0
05/02:00pm 33.7 32.7 10.3 24 13.6 ENE 6 17 3 9 1013.0 1012.1 0.0
05/01:30pm 33.4 31.8 10.1 24 13.5 ESE 9 30 5 16 1013.4 1012.6 0.0
05/01:00pm 34.0 31.7 10.6 24 13.7 ENE 13 20 7 11 1014.0 1013.2 0.0
05/12:30pm 32.7 30.0 8.9 23 13.5 SE 13 24 7 13 1014.7 1013.9 0.0
05/12:00pm 32.4 30.8 8.0 22 13.6 ESE 6 17 3 9 1015.3 1014.4 0.0
05/11:30am 31.8 29.0 6.8 21 13.7 ESE 11 20 6 11 1016.0 1015.1 0.0
05/11:00am 31.8 28.6 5.3 19 14.1 E 11 20 6 11 1016.5 1015.6 0.0
05/10:30am 30.2 26.0 4.0 19 13.6 ESE 15 22 8 12 1016.8 1015.9 0.0
05/10:00am 29.3 24.9 4.7 21 12.8 E 17 22 9 12 1016.9 1016.1 0.0
05/09:30am 27.9 23.8 4.2 22 12.1 E 15 22 8 12 1016.7 1015.8 0.0
05/09:00am 25.7 22.5 5.3 27 10.5 E 11 19 6 10 1016.4 1015.5 0.0
05/08:30am 23.6 21.3 5.5 31 9.2 ESE 7 11 4 6 1016.2 1015.3 0.0
05/08:00am 19.3 18.9 8.3 49 5.8 CALM 0 7 0 4 1016.3 1015.4 0.0
05/07:30am 16.9 16.6 8.8 59 4.2 CALM 0 0 0 0 1016.1 1015.2 0.0
05/07:00am 16.6 16.2 8.3 58 4.3 CALM 0 0 0 0 1015.8 1014.9 0.0
05/06:30am 16.9 16.9 9.8 63 3.8 CALM 0 0 0 0 1015.6 1014.7 0.0
05/06:00am 17.3 17.1 9.0 58 4.3 CALM 0 0 0 0 1015.3 1014.4 0.0
05/05:30am 17.8 17.4 8.4 54 4.9 CALM 0 0 0 0 1015.3 1014.4 0.0
05/05:00am 18.0 17.7 8.8 55 4.8 CALM 0 0 0 0 1015.3 1014.4 0.0
05/04:30am 18.1 17.9 9.2 56 4.7 CALM 0 0 0 0 1015.0 1014.2 0.0
05/04:00am 18.4 18.3 9.5 56 4.7 CALM 0 0 0 0 1015.2 1014.3 0.0
05/03:30am 18.5 18.1 8.2 51 5.4 CALM 0 0 0 0 1015.3 1014.4 0.0
05/03:00am 18.9 18.4 8.0 49 5.7 CALM 0 0 0 0 1015.2 1014.3 0.0
05/02:30am 19.6 19.2 8.3 48 5.9 CALM 0 0 0 0 1015.5 1014.6 0.0
05/02:00am 20.0 19.5 7.7 45 6.4 CALM 0 0 0 0 1015.4 1014.5 0.0
05/01:30am 20.6 19.8 6.5 40 7.2 CALM 0 0 0 0 1015.6 1014.7 0.0
05/01:00am 21.7 20.6 5.2 34 8.3 CALM 0 0 0 0 1015.8 1014.9 0.0
05/12:30am 22.0 19.7 5.0 33 8.5 SE 6 9 3 5 1015.8 1014.9 0.0
05/12:00am 23.0 20.2 5.0 31 9.1 SE 9 13 5 7 1015.9 1015.0 0.0
 
Date/Time
EST
Temp
°C
App
Temp
°C
Dew
Point
Rel
Hum
%
Delta-T
°C
Wind Press
QNH
hPa
Press
MSL
hPa
Rain
since 9 am
mm
Dir
 
Spd
km/h
Gust
km/h
Spd
kts
Gust
kts
04/11:30pm 23.6 20.4 5.0 30 9.4 SE 11 15 6 8 1016.0 1015.1 0.0
04/11:00pm 24.0 20.8 4.9 29 9.7 SE 11 15 6 8 1016.2 1015.3 0.0
04/10:30pm 24.7 21.6 5.5 29 9.9 SE 11 15 6 8 1016.2 1015.3 0.0
04/10:00pm 25.0 22.3 7.2 32 9.4 SE 11 15 6 8 1016.3 1015.4 0.0
04/09:30pm 25.7 22.9 8.7 34 9.3 SSE 13 19 7 10 1016.0 1015.1 0.0
04/09:00pm 25.5 23.9 11.7 42 7.9 SSE 11 13 6 7 1015.7 1014.8 0.0
04/08:30pm 26.0 25.8 13.5 46 7.4 SSE 7 9 4 5 1015.4 1014.5 0.0
04/08:00pm 26.4 27.0 14.2 47 7.3 SSE 4 9 2 5 1014.8 1014.0 0.0
04/07:30pm 27.2 28.5 14.2 44 7.8 CALM 0 0 0 0 1014.3 1013.5 0.0
04/07:00pm 27.7 27.6 14.0 43 8.3 SE 7 7 4 4 1014.0 1013.2 0.0
04/06:30pm 28.8 28.6 13.5 39 9.2 ESE 7 11 4 6 1013.6 1012.8 0.0
04/06:00pm 30.2 29.4 13.0 34 10.3 SE 9 15 5 8 1013.4 1012.6 0.0
04/05:30pm 30.7 29.9 13.0 33 10.6 SE 9 17 5 9 1013.3 1012.5 0.0
04/05:00pm 31.5 31.0 13.7 33 10.8 ESE 9 15 5 8 1013.2 1012.4 0.0
04/04:30pm 31.6 30.6 13.4 33 11.0 SSE 11 19 6 10 1013.2 1012.4 0.0
04/04:00pm 31.3 31.8 14.9 37 10.2 SE 6 13 3 7 1013.3 1012.5 0.0
04/03:30pm 31.9 30.8 15.4 37 10.3 SE 15 22 8 12 1013.4 1012.6 0.0
04/03:00pm 31.0 30.4 14.6 37 10.1 SE 11 22 6 12 1013.7 1012.9 0.0
04/02:30pm 30.9 29.6 14.9 37 9.9 SE 15 26 8 14 1014.0 1013.2 0.0
04/02:00pm 30.0 29.3 15.3 41 9.1 SSE 13 24 7 13 1014.6 1013.8 0.0
04/01:30pm 29.5 28.9 15.6 43 8.6 SE 13 22 7 12 1015.2 1014.3 0.0
04/01:00pm 28.6 27.3 15.8 45 8.0 SE 17 24 9 13 1015.7 1014.8 0.0
04/12:30pm 28.9 28.1 16.1 46 8.0 ESE 15 24 8 13 1016.0 1015.1 0.0
04/12:00pm 28.9 28.1 17.1 49 7.5 SE 17 26 9 14 1016.4 1015.5 0.0
04/11:30am 26.7 25.5 16.0 52 6.6 SE 17 26 9 14 1017.0 1016.2 0.0
04/11:00am 26.2 25.5 16.4 54 6.1 SE 15 20 8 11 1017.5 1016.7 0.0
04/10:30am 25.8 24.8 16.6 56 5.7 SE 17 20 9 11 1017.9 1017.1 0.0
04/10:00am 25.1 24.2 16.8 60 5.2 SE 17 26 9 14 1017.9 1017.1 0.0
04/09:30am 23.5 22.8 17.3 68 3.9 SE 17 24 9 13 1017.8 1017.0 0.0
04/09:00am 22.3 21.8 17.7 75 2.9 SSE 17 20 9 11 1017.5 1016.7 0.4
04/08:30am 21.6 21.3 17.4 77 2.6 SSE 15 20 8 11 1017.2 1016.4 0.4
04/08:00am 20.8 20.3 17.8 83 1.9 SSE 17 20 9 11 1016.9 1016.1 0.4
04/07:30am 19.6 20.2 17.7 89 1.2 SSE 11 15 6 8 1016.6 1015.7 0.4
04/07:00am 19.2 20.0 17.3 89 1.2 SSE 9 15 5 8 1016.3 1015.4 0.4
04/06:30am 18.9 19.7 17.2 90 1.0 S 9 11 5 6 1016.0 1015.1 0.4
04/06:00am 19.1 20.2 17.2 89 1.2 SSE 7 11 4 6 1015.5 1014.6 0.4
04/05:30am 19.2 20.3 17.2 88 1.2 SSE 7 11 4 6 1015.2 1014.3 0.4
04/05:00am 19.4 20.1 17.0 86 1.5 SSE 9 11 5 6 1015.2 1014.3 0.4
04/04:30am 19.8 20.2 17.2 85 1.6 SSE 11 13 6 7 1015.0 1014.2 0.4
04/04:00am 20.2 20.2 17.2 83 1.8 SSE 13 19 7 10 1015.2 1014.3 0.4
04/03:30am 20.4 20.4 17.2 82 2.0 S 13 17 7 9 1015.4 1014.5 0.4
04/03:00am 20.3 20.7 17.3 83 1.9 S 11 13 6 7 1015.4 1014.5 0.4
04/02:30am 21.0 21.5 17.4 80 2.2 S 11 15 6 8 1015.5 1014.6 0.4
04/02:00am 21.4 21.9 17.4 78 2.5 S 11 13 6 7 1015.7 1014.8 0.4
04/01:30am 22.4 22.9 17.5 74 3.1 S 11 17 6 9 1015.9 1015.0 0.4
04/01:00am 22.7 23.0 17.8 74 3.1 S 13 19 7 10 1016.0 1015.1 0.4
04/12:30am 22.9 23.8 17.6 72 3.3 SSE 9 13 5 7 1016.1 1015.2 0.4
04/12:00am 23.4 23.7 17.8 71 3.5 S 13 19 7 10 1016.5 1015.6 0.4
 
Date/Time
EST
Temp
°C
App
Temp
°C
Dew
Point
Rel
Hum
%
Delta-T
°C
Wind Press
QNH
hPa
Press
MSL
hPa
Rain
since 9 am
mm
Dir
 
Spd
km/h
Gust
km/h
Spd
kts
Gust
kts
03/11:30pm 23.6 23.9 17.8 70 3.7 SE 13 22 7 12 1016.4 1015.5 0.4
03/11:00pm 23.7 23.2 17.9 70 3.7 SSE 17 26 9 14 1016.6 1015.7 0.4
03/10:30pm 23.8 23.8 18.0 70 3.7 S 15 22 8 12 1016.7 1015.8 0.4
03/10:00pm 24.2 22.8 17.9 68 4.0 S 22 30 12 16 1016.9 1016.1 0.4
03/09:30pm 24.8 24.3 17.8 65 4.4 S 17 22 9 12 1016.6 1015.7 0.4
03/09:00pm 25.1 25.0 17.8 64 4.6 SSE 15 20 8 11 1016.4 1015.5 0.4
03/08:30pm 25.3 24.7 17.5 62 4.9 SSE 17 20 9 11 1016.1 1015.2 0.4
03/08:00pm 25.2 25.4 17.7 63 4.7 SSE 13 17 7 9 1016.0 1015.1 0.4
03/07:30pm 25.6 26.5 17.5 61 5.1 SSE 9 15 5 8 1015.6 1014.7 0.4
03/07:00pm 25.8 25.1 17.4 59 5.3 SE 17 24 9 13 1014.9 1014.1 0.4
03/06:30pm 26.0 25.3 17.4 59 5.4 SSE 17 24 9 13 1015.2 1014.3 0.4
03/06:00pm 26.4 25.3 17.2 57 5.8 SSE 19 26 10 14 1015.2 1014.3 0.4
03/05:30pm 27.1 26.4 17.3 55 6.2 SSE 17 26 9 14 1014.7 1013.9 0.4
03/05:00pm 27.2 26.0 17.1 54 6.4 SSE 19 26 10 14 1014.5 1013.7 0.4
03/04:30pm 27.5 26.2 16.8 52 6.7 S 19 24 10 13 1014.4 1013.6 0.4
03/04:00pm 28.2 27.7 17.7 53 6.7 SSE 17 24 9 13 1014.3 1013.5 0.4
03/03:30pm 27.6 26.5 17.7 54 6.3 S 20 26 11 14 1014.4 1013.6 0.4
03/03:00pm 27.8 27.0 17.0 51 6.8 S 17 24 9 13 1014.4 1013.6 0.4
03/02:30pm 27.5 27.0 17.9 55 6.1 SSW 17 24 9 13 1014.6 1013.8 0.4
03/02:00pm 27.0 25.8 17.5 56 6.0 SSW 20 28 11 15 1015.3 1014.4 0.4
03/01:30pm 26.9 26.3 18.5 60 5.4 SSW 19 24 10 13 1015.6 1014.7 0.0
03/01:00pm 26.1 25.9 17.7 60 5.3 SSW 15 20 8 11 1016.2 1015.3 0.0
03/12:30pm 25.9 26.4 17.5 59 5.3 SW 11 15 6 8 1016.7 1015.8 0.0
03/12:00pm 25.1 27.1 17.8 64 4.6 SW 4 9 2 5 1016.9 1016.1 0.0
03/11:30am 24.5 26.4 17.7 66 4.3 SW 4 9 2 5 1017.3 1016.5 0.0
03/11:00am 24.1 25.4 17.6 67 4.1 S 7 11 4 6 1017.5 1016.7 0.0
03/10:30am 23.5 24.9 17.7 70 3.6 SSE 7 13 4 7 1017.5 1016.7 0.0
03/10:00am 22.7 23.4 18.0 75 3.0 S 11 17 6 9 1017.7 1016.9 0.0
03/09:30am 21.9 21.7 17.7 77 2.6 S 15 22 8 12 1017.5 1016.7 0.0
03/09:00am 21.9 20.9 17.5 76 2.7 SSW 19 24 10 13 1017.5 1016.7 2.2
03/08:30am 21.7 20.8 17.7 78 2.5 SSW 19 26 10 14 1017.4 1016.6 2.2
03/08:00am 21.2 20.0 17.6 80 2.2 SSW 20 28 11 15 1017.2 1016.4 2.2
03/07:30am 21.6 19.5 16.3 72 3.2 SW 22 30 12 16 1016.9 1016.1 2.2
03/07:00am 21.6 19.4 15.9 70 3.5 SW 22 33 12 18 1016.4 1015.5 2.2
03/06:30am 21.6 20.1 15.2 67 3.8 SW 17 22 9 12 1015.8 1014.9 2.2
03/06:00am 21.5 21.3 15.8 70 3.4 W 11 17 6 9 1015.6 1014.7 2.2
03/05:30am 20.6 23.2 17.6 83 1.9 CALM 0 6 0 3 1014.9 1014.1 2.2
03/05:00am 23.4 24.5 13.6 54 5.8 CALM 0 7 0 4 1014.3 1013.5 0.0
03/04:30am 23.3 24.5 13.8 55 5.6 CALM 0 0 0 0 1014.0 1013.2 0.0
03/04:00am 23.4 24.2 13.6 54 5.8 WSW 2 7 1 4 1013.9 1013.1 0.0
03/03:30am 24.1 23.8 13.3 51 6.3 S 7 9 4 5 1013.7 1012.9 0.0
03/03:00am 25.0 24.4 13.5 48 6.8 ESE 9 13 5 7 1013.7 1012.9 0.0
03/02:30am 25.0 24.8 13.5 48 6.8 SE 7 13 4 7 1013.9 1013.1 0.0
03/02:00am 24.9 23.9 13.5 49 6.7 SE 11 17 6 9 1014.1 1013.3 0.0
03/01:30am 25.3 23.8 13.2 47 7.1 SSE 13 20 7 11 1014.4 1013.6 0.0
03/01:00am 25.6 24.1 13.1 46 7.4 SSE 13 17 7 9 1014.6 1013.8 0.0
03/12:30am 25.9 24.0 13.1 45 7.5 SSE 15 20 8 11 1014.8 1014.0 0.0
03/12:00am 25.7 23.4 12.9 45 7.5 S 17 24 9 13 1014.9 1014.1 0.0
 
Date/Time
EST
Temp
°C
App
Temp
°C
Dew
Point
Rel
Hum
%
Delta-T
°C
Wind Press
QNH
hPa
Press
MSL
hPa
Rain
since 9 am
mm
Dir
 
Spd
km/h
Gust
km/h
Spd
kts
Gust
kts
02/11:30pm 25.9 23.9 12.7 44 7.7 S 15 22 8 12 1015.3 1014.4 0.0
02/11:00pm 26.4 24.0 12.5 42 8.1 S 17 24 9 13 1015.5 1014.6 0.0
02/10:30pm 26.8 24.2 12.1 40 8.6 S 17 20 9 11 1015.5 1014.6 0.0
02/10:00pm 27.0 25.0 11.5 38 8.9 S 13 19 7 10 1015.3 1014.4 0.0
02/09:30pm 27.5 24.6 11.1 36 9.4 S 17 22 9 12 1015.4 1014.5 0.0
02/09:00pm 28.0 24.2 11.1 35 9.7 SSE 22 28 12 15 1015.0 1014.2 0.0

Other Formats:

Comma delimited format used in spreadsheet applications
http://www.bom.gov.au/fwo/IDQ60801/IDQ60801.94255.axf

JavaScript Object Notation format (JSON) in row-major order
http://www.bom.gov.au/fwo/IDQ60801/IDQ60801.94255.json